Latest Weather Observations for Ocean Reef

IDW60801

Issued at 9:03 pm WST Sunday 5 July 2015 (issued every 30 minutes, with the page automatically refreshed every 10 minutes)

About weather observations | Map of weather stations | Latest weather observations for WA | Other Formats
Station Details ID: 009214 Name: OCEAN REEF Lat: -31.76 Lon: 115.73 Height: 10.0 m
Data from the previous 72 hours. | See also: Recent months for locations in Western Australia
Date/Time
WST
Temp
°C
App
Temp
°C
Dew
Point
Rel
Hum
%
Delta-T
°C
Wind Press
QNH
hPa
Press
MSL
hPa
Rain
since 9 am
mm
Dir
 
Spd
km/h
Gust
km/h
Spd
kts
Gust
kts
05/09:00pm - - - - - ENE 9 11 5 6 - - -
05/08:30pm - - - - - NE 11 11 6 6 - - -
05/08:00pm - - - - - NE 11 15 6 8 - - -
05/07:30pm - - - - - NE 9 11 5 6 - - -
05/07:00pm - - - - - ENE 11 13 6 7 - - -
05/06:30pm - - - - - E 9 11 5 6 - - -
05/06:00pm - - - - - E 9 11 5 6 - - -
05/05:30pm - - - - - E 7 9 4 5 - - -
05/05:00pm - - - - - S 9 15 5 8 - - -
05/04:30pm - - - - - SSE 9 13 5 7 - - -
05/04:00pm - - - - - SSE 9 11 5 6 - - -
05/03:30pm - - - - - S 13 17 7 9 - - -
05/03:00pm - - - - - WSW 24 32 13 17 - - -
05/02:40pm - - - - - WSW 19 37 10 20 - - -
05/02:30pm - - - - - SW 11 15 6 8 - - -
05/02:00pm - - - - - SSW 13 17 7 9 - - -
05/01:30pm - - - - - W 22 32 12 17 - - -
05/01:00pm - - - - - NNW 22 26 12 14 - - -
05/12:30pm - - - - - NNW 24 26 13 14 - - -
05/12:00pm - - - - - NNW 28 32 15 17 - - -
05/11:30am - - - - - NNW 22 28 12 15 - - -
05/11:00am - - - - - NNW 19 22 10 12 - - -
05/10:30am - - - - - NNW 15 17 8 9 - - -
05/10:00am - - - - - NE 11 15 6 8 - - -
05/09:30am - - - - - NE 11 15 6 8 - - -
05/09:00am - - - - - NNE 13 17 7 9 - - -
05/08:30am - - - - - NE 11 15 6 8 - - -
05/08:00am - - - - - ENE 17 20 9 11 - - -
05/07:30am - - - - - ENE 15 17 8 9 - - -
05/07:00am - - - - - ENE 17 19 9 10 - - -
05/06:30am - - - - - ENE 17 17 9 9 - - -
05/06:00am - - - - - ENE 13 17 7 9 - - -
05/05:30am - - - - - ENE 13 15 7 8 - - -
05/05:00am - - - - - E 11 15 6 8 - - -
05/04:30am - - - - - SW 9 17 5 9 - - -
05/04:00am - - - - - SW 17 22 9 12 - - -
05/03:30am - - - - - SW 19 22 10 12 - - -
05/03:00am - - - - - SW 19 22 10 12 - - -
05/02:30am - - - - - ESE 6 17 3 9 - - -
05/02:00am - - - - - S 13 20 7 11 - - -
05/01:30am - - - - - SSW 15 19 8 10 - - -
05/01:00am - - - - - WSW 17 19 9 10 - - -
05/12:30am - - - - - SSW 6 19 3 10 - - -
05/12:00am - - - - - E 9 11 5 6 - - -
 
Date/Time
WST
Temp
°C
App
Temp
°C
Dew
Point
Rel
Hum
%
Delta-T
°C
Wind Press
QNH
hPa
Press
MSL
hPa
Rain
since 9 am
mm
Dir
 
Spd
km/h
Gust
km/h
Spd
kts
Gust
kts
04/11:30pm - - - - - ENE 7 9 4 5 - - -
04/11:00pm - - - - - N 6 7 3 4 - - -
04/10:30pm - - - - - W 20 26 11 14 - - -
04/10:00pm - - - - - SW 17 19 9 10 - - -
04/09:30pm - - - - - ENE 6 13 3 7 - - -
04/09:00pm - - - - - NNW 6 7 3 4 - - -
04/08:30pm - - - - - SE 4 6 2 3 - - -
04/08:00pm - - - - - WSW 9 13 5 7 - - -
04/07:30pm - - - - - W 35 43 19 23 - - -
04/07:22pm - - - - - WSW 19 35 10 19 - - -
04/07:00pm - - - - - WSW 11 15 6 8 - - -
04/06:30pm - - - - - WSW 17 17 9 9 - - -
04/06:00pm - - - - - WSW 11 13 6 7 - - -
04/05:30pm - - - - - WNW 9 11 5 6 - - -
04/05:00pm - - - - - W 11 13 6 7 - - -
04/04:30pm - - - - - SW 15 20 8 11 - - -
04/04:00pm - - - - - WSW 20 26 11 14 - - -
04/03:30pm - - - - - SW 19 28 10 15 - - -
04/03:00pm - - - - - SW 22 37 12 20 - - -
04/02:30pm - - - - - WNW 19 22 10 12 - - -
04/02:00pm - - - - - W 15 22 8 12 - - -
04/01:30pm - - - - - WNW 20 24 11 13 - - -
04/01:00pm - - - - - WNW 17 20 9 11 - - -
04/12:30pm - - - - - WSW 19 24 10 13 - - -
04/12:00pm - - - - - NNW 17 19 9 10 - - -
04/11:30am - - - - - NNW 19 20 10 11 - - -
04/11:00am - - - - - NNW 15 19 8 10 - - -
04/10:30am - - - - - NNW 15 20 8 11 - - -
04/10:00am - - - - - NNW 11 13 6 7 - - -
04/09:30am - - - - - NNE 9 13 5 7 - - -
04/09:00am - - - - - NNE 11 15 6 8 - - -
04/08:30am - - - - - NNE 13 20 7 11 - - -
04/08:00am - - - - - NE 13 17 7 9 - - -
04/07:30am - - - - - NE 11 17 6 9 - - -
04/07:00am - - - - - NE 13 17 7 9 - - -
04/06:30am - - - - - NE 13 19 7 10 - - -
04/06:00am - - - - - NE 13 19 7 10 - - -
04/05:30am - - - - - NE 13 19 7 10 - - -
04/05:00am - - - - - NE 13 19 7 10 - - -
04/04:30am - - - - - NE 13 19 7 10 - - -
04/04:00am - - - - - ENE 15 17 8 9 - - -
04/03:30am - - - - - NE 13 17 7 9 - - -
04/03:00am - - - - - ENE 13 15 7 8 - - -
04/02:30am - - - - - NE 11 13 6 7 - - -
04/02:00am - - - - - NNE 11 15 6 8 - - -
04/01:30am - - - - - NE 13 13 7 7 - - -
04/01:00am - - - - - NE 11 13 6 7 - - -
04/12:30am - - - - - NE 13 13 7 7 - - -
04/12:00am - - - - - NE 9 11 5 6 - - -
 
Date/Time
WST
Temp
°C
App
Temp
°C
Dew
Point
Rel
Hum
%
Delta-T
°C
Wind Press
QNH
hPa
Press
MSL
hPa
Rain
since 9 am
mm
Dir
 
Spd
km/h
Gust
km/h
Spd
kts
Gust
kts
03/11:30pm - - - - - NE 11 11 6 6 - - -
03/11:00pm - - - - - NE 9 9 5 5 - - -
03/10:30pm - - - - - ENE 9 9 5 5 - - -
03/10:00pm - - - - - ENE 11 13 6 7 - - -
03/09:30pm - - - - - ENE 11 11 6 6 - - -
03/09:00pm - - - - - ENE 6 7 3 4 - - -
03/08:30pm - - - - - E 7 9 4 5 - - -
03/08:00pm - - - - - WSW 6 7 3 4 - - -
03/07:30pm - - - - - WSW 7 9 4 5 - - -
03/07:00pm - - - - - SW 9 11 5 6 - - -
03/06:30pm - - - - - W 7 9 4 5 - - -
03/06:00pm - - - - - W 7 9 4 5 - - -
03/05:30pm - - - - - W 7 7 4 4 - - -
03/05:00pm - - - - - WNW 9 9 5 5 - - -
03/04:30pm - - - - - WNW 11 13 6 7 - - -
03/04:00pm - - - - - W 11 13 6 7 - - -
03/03:30pm - - - - - WSW 6 7 3 4 - - -
03/03:00pm - - - - - W 13 15 7 8 - - -
03/02:30pm - - - - - WNW 17 19 9 10 - - -
03/02:00pm - - - - - W 15 17 8 9 - - -
03/01:30pm - - - - - WNW 13 15 7 8 - - -
03/01:00pm - - - - - WNW 13 15 7 8 - - -
03/12:30pm - - - - - NW 13 13 7 7 - - -
03/12:00pm - - - - - NNW 13 15 7 8 - - -
03/11:30am - - - - - NW 13 15 7 8 - - -
03/11:00am - - - - - NNW 11 13 6 7 - - -
03/10:30am - - - - - NNW 13 15 7 8 - - -
03/10:00am - - - - - NNE 6 7 3 4 - - -
03/09:30am - - - - - NE 9 11 5 6 - - -
03/09:00am - - - - - NE 9 11 5 6 - - -
03/08:30am - - - - - ENE 11 13 6 7 - - -
03/08:00am - - - - - NE 9 13 5 7 - - -
03/07:30am - - - - - NE 11 13 6 7 - - -
03/07:00am - - - - - NNE 13 15 7 8 - - -
03/06:30am - - - - - NE 11 13 6 7 - - -
03/06:00am - - - - - NNE 13 15 7 8 - - -
03/05:30am - - - - - NE 11 13 6 7 - - -
03/05:00am - - - - - NE 11 13 6 7 - - -
03/04:30am - - - - - NNE 13 19 7 10 - - -
03/04:00am - - - - - NNE 13 17 7 9 - - -
03/03:30am - - - - - NNE 13 17 7 9 - - -
03/03:00am - - - - - NNE 15 17 8 9 - - -
03/02:30am - - - - - NNE 13 17 7 9 - - -
03/02:00am - - - - - NNE 15 19 8 10 - - -
03/01:30am - - - - - NNE 15 20 8 11 - - -
03/01:00am - - - - - NNE 15 20 8 11 - - -
03/12:30am - - - - - NNE 15 19 8 10 - - -
03/12:00am - - - - - NNE 15 19 8 10 - - -
 
Date/Time
WST
Temp
°C
App
Temp
°C
Dew
Point
Rel
Hum
%
Delta-T
°C
Wind Press
QNH
hPa
Press
MSL
hPa
Rain
since 9 am
mm
Dir
 
Spd
km/h
Gust
km/h
Spd
kts
Gust
kts
02/11:30pm - - - - - NNE 15 19 8 10 - - -
02/11:00pm - - - - - NNE 17 20 9 11 - - -
02/10:30pm - - - - - NE 17 22 9 12 - - -
02/10:00pm - - - - - NNE 15 20 8 11 - - -
02/09:30pm - - - - - NNE 13 20 7 11 - - -

Other Formats:

Comma delimited format used in spreadsheet applications
http://www.bom.gov.au/fwo/IDW60801/IDW60801.94607.axf

JavaScript Object Notation format (JSON) in row-major order
http://www.bom.gov.au/fwo/IDW60801/IDW60801.94607.json